createdAt,value
2023-01-11T00:00:14.701Z,4
2023-01-11T00:01:14.481Z,4
2023-01-11T00:02:15.314Z,6
2023-01-11T00:03:13.980Z,6
2023-01-11T00:05:14.324Z,6
2023-01-11T00:06:14.201Z,6
2023-01-11T00:07:14.708Z,6
2023-01-11T00:08:13.980Z,6
2023-01-11T00:09:14.434Z,6
2023-01-11T00:10:14.450Z,6
2023-01-11T00:11:14.660Z,6
2023-01-11T00:12:14.372Z,6
2023-01-11T00:13:14.553Z,6
2023-01-11T00:14:14.332Z,6
2023-01-11T00:15:14.511Z,6
2023-01-11T00:16:15.186Z,6
2023-01-11T00:17:14.070Z,7
2023-01-11T00:18:14.509Z,7
2023-01-11T00:19:14.897Z,7
2023-01-11T00:20:14.074Z,7
2023-01-11T00:21:14.821Z,7
2023-01-11T00:22:14.216Z,7
2023-01-11T00:23:14.010Z,7
2023-01-11T00:24:14.479Z,7
2023-01-11T00:25:14.592Z,7
2023-01-11T00:26:14.442Z,7
2023-01-11T00:27:13.971Z,7
2023-01-11T00:28:14.429Z,7
2023-01-11T00:29:14.495Z,7
2023-01-11T00:30:13.583Z,7
2023-01-11T00:31:14.856Z,7
2023-01-11T00:32:14.832Z,0
2023-01-11T00:33:14.013Z,0
2023-01-11T00:34:14.335Z,0
2023-01-11T00:35:14.516Z,0
2023-01-11T00:36:14.043Z,0
2023-01-11T00:37:13.995Z,0
2023-01-11T00:38:14.816Z,0
2023-01-11T00:39:14.107Z,0
2023-01-11T00:40:14.795Z,0
2023-01-11T00:41:14.096Z,0
2023-01-11T00:42:13.699Z,0
2023-01-11T00:43:14.555Z,0
2023-01-11T00:44:14.461Z,0
2023-01-11T00:45:14.375Z,0
2023-01-11T00:46:15.245Z,0
2023-01-11T00:47:14.811Z,3
2023-01-11T00:48:14.425Z,3
2023-01-11T00:49:14.861Z,3
2023-01-11T00:50:14.113Z,3
2023-01-11T00:51:14.250Z,3
2023-01-11T00:52:14.609Z,3
2023-01-11T00:53:14.716Z,3
2023-01-11T00:54:14.310Z,3
2023-01-11T00:55:14.106Z,3
2023-01-11T00:56:14.129Z,3
2023-01-11T00:57:14.392Z,3
2023-01-11T00:58:14.650Z,3
2023-01-11T00:59:14.809Z,3
2023-01-11T01:00:14.426Z,3
2023-01-11T01:01:15.020Z,3
2023-01-11T01:02:14.533Z,1
2023-01-11T01:03:14.553Z,1
2023-01-11T01:04:14.630Z,1
2023-01-11T01:05:14.112Z,1
2023-01-11T01:06:14.739Z,1
2023-01-11T01:07:14.147Z,1
2023-01-11T01:08:14.400Z,1
2023-01-11T01:09:14.913Z,1
2023-01-11T01:10:14.463Z,1
2023-01-11T01:12:14.743Z,1
2023-01-11T01:13:13.985Z,1
2023-01-11T01:14:14.206Z,1
2023-01-11T01:15:14.053Z,1
2023-01-11T01:16:14.908Z,1
2023-01-11T01:17:14.329Z,3
2023-01-11T01:18:14.124Z,3
2023-01-11T01:19:14.328Z,3
2023-01-11T01:20:13.914Z,3
2023-01-11T01:21:14.570Z,3
2023-01-11T01:22:13.976Z,3
2023-01-11T01:23:14.714Z,3
2023-01-11T01:24:14.146Z,3
2023-01-11T01:26:14.227Z,3
2023-01-11T01:27:14.260Z,3
2023-01-11T01:28:14.050Z,3
2023-01-11T01:29:14.629Z,3
2023-01-11T01:30:15.013Z,3
2023-01-11T01:31:14.594Z,3
2023-01-11T01:32:14.859Z,4
2023-01-11T01:33:14.644Z,4
2023-01-11T01:34:14.664Z,4
2023-01-11T01:35:14.873Z,4
2023-01-11T01:36:14.349Z,4
2023-01-11T01:37:13.596Z,4
2023-01-11T01:38:14.560Z,4
2023-01-11T01:39:14.330Z,4
2023-01-11T01:40:14.434Z,4
2023-01-11T01:41:14.264Z,4
2023-01-11T01:42:14.293Z,4
2023-01-11T01:43:14.335Z,4
2023-01-11T01:44:14.721Z,4
2023-01-11T01:45:14.344Z,4
2023-01-11T01:46:14.819Z,4
2023-01-11T01:47:14.694Z,0
2023-01-11T01:49:15.039Z,0
2023-01-11T01:50:14.456Z,0
2023-01-11T01:51:14.923Z,0
2023-01-11T01:52:14.185Z,0
2023-01-11T01:53:14.577Z,0
2023-01-11T01:54:14.649Z,0
2023-01-11T01:55:14.038Z,0
2023-01-11T01:56:14.374Z,0
2023-01-11T01:57:14.794Z,0
2023-01-11T01:58:14.297Z,0
2023-01-11T01:59:14.668Z,0
2023-01-11T02:00:14.224Z,0
2023-01-11T02:01:13.862Z,0
2023-01-11T02:03:15.181Z,3
2023-01-11T02:04:14.657Z,3
2023-01-11T02:05:13.992Z,3
2023-01-11T02:06:15.045Z,3
2023-01-11T02:07:14.235Z,3
2023-01-11T02:08:14.119Z,3
2023-01-11T02:09:14.517Z,3
2023-01-11T02:10:14.926Z,3
2023-01-11T02:11:14.361Z,3
2023-01-11T02:12:14.543Z,3
2023-01-11T02:13:14.215Z,3
2023-01-11T02:14:14.391Z,3
2023-01-11T02:15:14.756Z,3
2023-01-11T02:16:15.341Z,3
2023-01-11T02:17:14.823Z,3
2023-01-11T02:18:14.813Z,3
2023-01-11T02:19:14.150Z,3
2023-01-11T02:20:14.600Z,3
2023-01-11T02:21:14.617Z,3
2023-01-11T02:22:14.902Z,3
2023-01-11T02:23:14.363Z,3
2023-01-11T02:24:14.548Z,3
2023-01-11T02:25:14.856Z,3
2023-01-11T02:26:14.773Z,3
2023-01-11T02:27:14.355Z,3
2023-01-11T02:28:14.385Z,3
2023-01-11T02:29:14.100Z,3
2023-01-11T02:30:13.776Z,3
2023-01-11T02:31:14.797Z,3
2023-01-11T02:32:14.117Z,1
2023-01-11T02:33:14.323Z,1
2023-01-11T02:34:14.667Z,1
2023-01-11T02:35:14.855Z,1
2023-01-11T02:36:14.134Z,1
2023-01-11T02:37:14.930Z,1
2023-01-11T02:38:14.209Z,1
2023-01-11T02:39:14.447Z,1
2023-01-11T02:40:14.672Z,1
2023-01-11T02:41:14.127Z,1
2023-01-11T02:43:14.454Z,1
2023-01-11T02:44:14.330Z,1
2023-01-11T02:46:14.728Z,1
2023-01-11T02:47:14.751Z,0
2023-01-11T02:48:14.335Z,0
2023-01-11T02:49:14.209Z,0
2023-01-11T02:50:14.500Z,0
2023-01-11T02:51:14.767Z,0
2023-01-11T02:52:14.046Z,0
2023-01-11T02:53:14.049Z,0
2023-01-11T02:54:14.388Z,0
2023-01-11T02:55:14.736Z,0
2023-01-11T02:56:14.549Z,0
2023-01-11T02:57:14.543Z,0
2023-01-11T02:58:14.912Z,0
2023-01-11T02:59:14.822Z,0
2023-01-11T03:00:14.068Z,0
2023-01-11T03:01:14.821Z,0
2023-01-11T03:02:15.277Z,4
2023-01-11T03:03:14.764Z,4
2023-01-11T03:04:14.589Z,4
2023-01-11T03:05:14.402Z,4
2023-01-11T03:07:14.386Z,4
2023-01-11T03:09:14.343Z,4
2023-01-11T03:10:14.681Z,4
2023-01-11T03:11:14.550Z,4
2023-01-11T03:13:13.957Z,4
2023-01-11T03:14:14.636Z,4
2023-01-11T03:15:14.823Z,4
2023-01-11T03:16:15.131Z,4
2023-01-11T03:17:14.094Z,1
2023-01-11T03:18:14.484Z,1
2023-01-11T03:19:14.257Z,1
2023-01-11T03:20:14.039Z,1
2023-01-11T03:21:14.891Z,1
2023-01-11T03:22:14.004Z,1
2023-01-11T03:23:15.092Z,1
2023-01-11T03:24:14.818Z,1
2023-01-11T03:25:14.339Z,1
2023-01-11T03:26:14.398Z,1
2023-01-11T03:27:13.973Z,1
2023-01-11T03:28:14.199Z,1
2023-01-11T03:29:14.387Z,1
2023-01-11T03:30:14.353Z,1
2023-01-11T03:31:14.290Z,1
2023-01-11T03:32:14.428Z,0
2023-01-11T03:33:14.178Z,0
2023-01-11T03:34:14.616Z,0
2023-01-11T03:35:14.726Z,0
2023-01-11T03:36:14.838Z,0
2023-01-11T03:37:14.684Z,0
2023-01-11T03:38:14.280Z,0
2023-01-11T03:39:15.069Z,0
2023-01-11T03:40:14.302Z,0
2023-01-11T03:41:14.501Z,0
2023-01-11T03:42:14.396Z,0
2023-01-11T03:43:14.705Z,0
2023-01-11T03:44:14.707Z,0
2023-01-11T03:45:15.001Z,0
2023-01-11T03:46:14.773Z,0
2023-01-11T03:47:14.578Z,0
2023-01-11T03:48:14.512Z,0
2023-01-11T03:49:14.487Z,0
2023-01-11T03:50:14.054Z,0
2023-01-11T03:52:14.411Z,0
2023-01-11T03:53:15.006Z,0
2023-01-11T03:54:15.045Z,0
2023-01-11T03:55:14.364Z,0
2023-01-11T03:56:14.632Z,0
2023-01-11T03:57:14.105Z,0
2023-01-11T03:58:14.190Z,0
2023-01-11T03:59:14.539Z,0
2023-01-11T04:00:14.391Z,0
2023-01-11T04:01:14.947Z,0
2023-01-11T04:02:14.721Z,0
2023-01-11T04:03:14.601Z,0
2023-01-11T04:04:15.101Z,0
2023-01-11T04:05:13.892Z,0
2023-01-11T04:06:14.469Z,0
2023-01-11T04:07:14.763Z,0
2023-01-11T04:08:14.489Z,0
2023-01-11T04:09:15.028Z,0
2023-01-11T04:10:14.657Z,0
2023-01-11T04:11:15.000Z,0
2023-01-11T04:12:14.222Z,0
2023-01-11T04:13:14.497Z,0
2023-01-11T04:14:14.130Z,0
2023-01-11T04:15:14.960Z,0
2023-01-11T04:16:15.225Z,0
2023-01-11T04:17:14.124Z,0
2023-01-11T04:18:14.327Z,0
2023-01-11T04:19:14.659Z,0
2023-01-11T04:21:14.158Z,0
2023-01-11T04:23:14.675Z,0
2023-01-11T04:24:14.289Z,0
2023-01-11T04:25:14.540Z,0
2023-01-11T04:26:14.479Z,0
2023-01-11T04:27:14.161Z,0
2023-01-11T04:28:14.671Z,0
2023-01-11T04:29:14.766Z,0
2023-01-11T04:30:15.023Z,0
2023-01-11T04:31:15.068Z,0
2023-01-11T04:32:14.171Z,0
2023-01-11T04:33:15.007Z,0
2023-01-11T04:34:13.620Z,0
2023-01-11T04:35:14.169Z,0
2023-01-11T04:36:14.571Z,0
2023-01-11T04:37:14.859Z,0
2023-01-11T04:38:14.960Z,0
2023-01-11T04:39:14.218Z,0
2023-01-11T04:40:14.247Z,0
2023-01-11T04:41:14.342Z,0
2023-01-11T04:42:14.786Z,0
2023-01-11T04:43:14.364Z,0
2023-01-11T04:44:14.793Z,0
2023-01-11T04:45:14.343Z,0
2023-01-11T04:46:14.484Z,0
2023-01-11T04:47:14.687Z,0
2023-01-11T04:48:14.472Z,0
2023-01-11T04:49:14.994Z,0
2023-01-11T04:50:15.144Z,0
2023-01-11T04:51:14.312Z,0
2023-01-11T04:52:13.603Z,0
2023-01-11T04:53:15.056Z,0
2023-01-11T04:54:14.488Z,0
2023-01-11T04:55:14.361Z,0
2023-01-11T04:56:14.201Z,0
2023-01-11T04:57:14.718Z,0
2023-01-11T04:58:14.427Z,0
2023-01-11T05:00:14.910Z,0
2023-01-11T05:01:15.239Z,0
2023-01-11T05:02:14.241Z,0
2023-01-11T05:03:14.359Z,0
2023-01-11T05:05:14.611Z,0
2023-01-11T05:06:14.645Z,0
2023-01-11T05:07:14.975Z,0
2023-01-11T05:08:14.103Z,0
2023-01-11T05:09:14.525Z,0
2023-01-11T05:10:14.921Z,0
2023-01-11T05:11:14.305Z,0
2023-01-11T05:12:15.015Z,0
2023-01-11T05:13:14.990Z,0
2023-01-11T05:14:14.756Z,0
2023-01-11T05:15:13.732Z,0
2023-01-11T05:16:15.292Z,0
2023-01-11T05:17:14.444Z,0
2023-01-11T05:18:14.284Z,0
2023-01-11T05:19:14.362Z,0
2023-01-11T05:20:14.566Z,0
2023-01-11T05:21:14.723Z,0
2023-01-11T05:22:14.954Z,0
2023-01-11T05:23:13.993Z,0
2023-01-11T05:24:14.822Z,0
2023-01-11T05:25:14.447Z,0
2023-01-11T05:26:14.751Z,0
2023-01-11T05:27:14.217Z,0
2023-01-11T05:28:14.076Z,0
2023-01-11T05:29:14.806Z,0
2023-01-11T05:30:14.757Z,0
2023-01-11T05:31:14.851Z,0
2023-01-11T05:32:14.264Z,1
2023-01-11T05:33:15.022Z,1
2023-01-11T05:34:14.090Z,1
2023-01-11T05:35:14.594Z,1
2023-01-11T05:36:14.987Z,1
2023-01-11T05:37:14.826Z,1
2023-01-11T05:38:14.064Z,1
2023-01-11T05:39:13.916Z,1
2023-01-11T05:40:14.347Z,1
2023-01-11T05:41:14.743Z,1
2023-01-11T05:43:13.693Z,1
2023-01-11T05:44:15.051Z,1
2023-01-11T05:45:14.253Z,1
2023-01-11T05:46:15.142Z,1
2023-01-11T05:47:14.114Z,1
2023-01-11T05:48:14.779Z,1
2023-01-11T05:49:14.270Z,1
2023-01-11T05:50:14.287Z,1
2023-01-11T05:51:14.200Z,1
2023-01-11T05:52:13.985Z,1
2023-01-11T05:53:13.799Z,1
2023-01-11T05:54:14.054Z,1
2023-01-11T05:56:14.742Z,1
2023-01-11T05:57:14.293Z,1
2023-01-11T05:58:14.114Z,1
2023-01-11T05:59:14.651Z,1
2023-01-11T06:00:13.979Z,1
2023-01-11T06:01:14.580Z,1
2023-01-11T06:02:14.271Z,0
2023-01-11T06:03:14.240Z,0
2023-01-11T06:04:14.549Z,0
2023-01-11T06:05:14.593Z,0
2023-01-11T06:06:14.137Z,0
2023-01-11T06:07:14.940Z,0
2023-01-11T06:08:14.206Z,0
2023-01-11T06:09:14.584Z,0
2023-01-11T06:11:14.334Z,0
2023-01-11T06:12:14.515Z,0
2023-01-11T06:13:14.749Z,0
2023-01-11T06:14:14.603Z,0
2023-01-11T06:15:14.550Z,0
2023-01-11T06:16:15.115Z,0
2023-01-11T06:17:14.113Z,0
2023-01-11T06:18:13.987Z,0
2023-01-11T06:19:14.306Z,0
2023-01-11T06:20:14.490Z,0
2023-01-11T06:21:14.574Z,0
2023-01-11T06:22:14.516Z,0
2023-01-11T06:23:14.812Z,0
2023-01-11T06:24:14.406Z,0
2023-01-11T06:25:14.478Z,0
2023-01-11T06:26:15.270Z,0
2023-01-11T06:27:14.063Z,0
2023-01-11T06:28:14.408Z,0
2023-01-11T06:29:14.252Z,0
2023-01-11T06:30:14.722Z,0
2023-01-11T06:31:17.534Z,0
2023-01-11T06:32:14.722Z,0
2023-01-11T06:33:14.022Z,0
2023-01-11T06:35:14.424Z,0
2023-01-11T06:36:14.470Z,0
2023-01-11T06:37:13.901Z,0
2023-01-11T06:38:14.937Z,0
2023-01-11T06:39:14.276Z,0
2023-01-11T06:40:14.269Z,0
2023-01-11T06:41:14.541Z,0
2023-01-11T06:42:14.947Z,0
2023-01-11T06:43:14.307Z,0
2023-01-11T06:44:13.972Z,0
2023-01-11T06:45:14.200Z,0
2023-01-11T06:46:15.451Z,0
2023-01-11T06:47:14.074Z,0
2023-01-11T06:48:14.173Z,0
2023-01-11T06:49:15.004Z,0
2023-01-11T06:50:14.732Z,0
2023-01-11T06:51:14.466Z,0
2023-01-11T06:52:14.050Z,0
2023-01-11T06:53:14.135Z,0
2023-01-11T06:54:14.238Z,0
2023-01-11T06:55:14.380Z,0
2023-01-11T06:56:14.410Z,0
2023-01-11T06:57:14.557Z,0
2023-01-11T06:58:14.685Z,0
2023-01-11T06:59:14.912Z,0
2023-01-11T07:00:13.716Z,0
2023-01-11T07:01:15.048Z,0
2023-01-11T07:02:14.287Z,0
2023-01-11T07:03:14.573Z,0
2023-01-11T07:04:14.477Z,0
2023-01-11T07:05:14.418Z,0
2023-01-11T07:06:13.996Z,0
2023-01-11T07:07:13.949Z,0
2023-01-11T07:08:14.201Z,0
2023-01-11T07:09:14.015Z,0
2023-01-11T07:10:14.167Z,0
2023-01-11T07:11:15.156Z,0
2023-01-11T07:12:13.961Z,0
2023-01-11T07:13:14.549Z,0
2023-01-11T07:14:14.320Z,0
2023-01-11T07:15:14.532Z,0
2023-01-11T07:16:14.777Z,0
2023-01-11T07:17:14.597Z,3
2023-01-11T07:18:14.479Z,3
2023-01-11T07:19:14.723Z,3
2023-01-11T07:20:14.165Z,3
2023-01-11T07:21:14.510Z,3
2023-01-11T07:22:14.211Z,3
2023-01-11T07:23:14.242Z,3
2023-01-11T07:24:14.382Z,3
2023-01-11T07:25:14.501Z,3
2023-01-11T07:26:15.287Z,3
2023-01-11T07:27:14.048Z,3
2023-01-11T07:28:14.303Z,3
2023-01-11T07:29:14.277Z,3
2023-01-11T07:31:14.802Z,3
2023-01-11T07:32:14.829Z,1
2023-01-11T07:33:14.603Z,1
2023-01-11T07:34:14.550Z,1
2023-01-11T07:35:14.182Z,1
2023-01-11T07:36:14.199Z,1
2023-01-11T07:37:34.126Z,1
2023-01-11T07:38:14.276Z,1
2023-01-11T07:39:14.653Z,1
2023-01-11T07:41:14.633Z,1
2023-01-11T07:42:15.308Z,1
2023-01-11T07:43:13.682Z,1
2023-01-11T07:44:14.322Z,1
2023-01-11T07:45:14.674Z,1
2023-01-11T07:46:13.993Z,1
2023-01-11T07:47:14.662Z,3
2023-01-11T07:48:14.608Z,3
2023-01-11T07:49:13.899Z,3
2023-01-11T07:50:14.538Z,3
2023-01-11T07:51:13.676Z,3
2023-01-11T07:52:14.433Z,3
2023-01-11T07:53:14.895Z,3
2023-01-11T07:54:14.691Z,3
2023-01-11T07:55:14.276Z,3
2023-01-11T07:56:14.296Z,3
2023-01-11T07:57:14.479Z,3
2023-01-11T07:58:13.617Z,3
2023-01-11T07:59:14.748Z,3
2023-01-11T08:00:14.686Z,3
2023-01-11T08:01:14.778Z,3
2023-01-11T08:02:14.027Z,1
2023-01-11T08:03:14.910Z,1
2023-01-11T08:04:14.474Z,1
2023-01-11T08:06:14.181Z,1
2023-01-11T08:07:15.411Z,1
2023-01-11T08:08:14.608Z,1
2023-01-11T08:09:14.293Z,1
2023-01-11T08:10:14.083Z,1
2023-01-11T08:12:15.025Z,1
2023-01-11T08:13:14.425Z,1
2023-01-11T08:15:14.223Z,1
2023-01-11T08:16:15.520Z,1
2023-01-11T08:17:14.271Z,0
2023-01-11T08:18:14.344Z,0
2023-01-11T08:19:14.505Z,0
2023-01-11T08:20:14.025Z,0
2023-01-11T08:21:14.911Z,0
2023-01-11T08:22:14.337Z,0
2023-01-11T08:23:14.629Z,0
2023-01-11T08:24:14.615Z,0
2023-01-11T08:25:14.890Z,0
2023-01-11T08:26:14.101Z,0
2023-01-11T08:27:14.422Z,0
2023-01-11T08:28:15.016Z,0
2023-01-11T08:29:14.482Z,0
2023-01-11T08:30:14.804Z,0
2023-01-11T08:31:14.683Z,0
2023-01-11T08:32:14.680Z,1
2023-01-11T08:33:15.097Z,1
2023-01-11T08:34:14.381Z,1
2023-01-11T08:35:14.878Z,1
2023-01-11T08:36:14.499Z,1
2023-01-11T08:37:14.826Z,1
2023-01-11T08:38:14.919Z,1
2023-01-11T08:39:14.810Z,1
2023-01-11T08:40:14.154Z,1
2023-01-11T08:41:14.254Z,1
2023-01-11T08:42:14.605Z,1
2023-01-11T08:43:13.558Z,1
2023-01-11T08:45:14.809Z,1
2023-01-11T08:46:15.397Z,4
2023-01-11T08:47:14.385Z,4
2023-01-11T08:48:14.580Z,4
2023-01-11T08:49:15.147Z,4
2023-01-11T08:50:14.535Z,4
2023-01-11T08:51:13.632Z,4
2023-01-11T08:52:14.233Z,4
2023-01-11T08:54:15.035Z,4
2023-01-11T08:55:14.228Z,4
2023-01-11T08:56:13.911Z,4
2023-01-11T08:57:14.203Z,4
2023-01-11T08:58:14.501Z,4
2023-01-11T09:00:14.755Z,4
2023-01-11T09:01:14.649Z,4
2023-01-11T09:02:14.517Z,1
2023-01-11T09:03:14.765Z,1
2023-01-11T09:04:34.319Z,1
2023-01-11T09:05:15.330Z,1
2023-01-11T09:06:14.649Z,1
2023-01-11T09:07:14.616Z,1
2023-01-11T09:08:14.366Z,1
2023-01-11T09:09:15.000Z,1
2023-01-11T09:10:14.114Z,1
2023-01-11T09:11:14.320Z,1
2023-01-11T09:13:14.602Z,1
2023-01-11T09:14:14.336Z,1
2023-01-11T09:15:14.696Z,1
2023-01-11T09:16:14.565Z,1
2023-01-11T09:17:14.427Z,3
2023-01-11T09:18:14.676Z,3
2023-01-11T09:19:14.342Z,3
2023-01-11T09:20:14.210Z,3
2023-01-11T09:21:13.733Z,3
2023-01-11T09:22:14.192Z,3
2023-01-11T09:23:13.647Z,3
2023-01-11T09:24:14.865Z,3
2023-01-11T09:25:13.631Z,3
2023-01-11T09:26:14.093Z,3
2023-01-11T09:27:15.400Z,3
2023-01-11T09:28:14.116Z,3
2023-01-11T09:29:14.810Z,3
2023-01-11T09:30:14.206Z,3
2023-01-11T09:31:14.561Z,3
2023-01-11T09:32:14.673Z,1
2023-01-11T09:33:14.862Z,1
2023-01-11T09:34:14.361Z,1
2023-01-11T09:35:14.938Z,1
2023-01-11T09:36:14.328Z,1
2023-01-11T09:37:14.229Z,1
2023-01-11T09:38:14.004Z,1
2023-01-11T09:39:14.465Z,1
2023-01-11T09:40:16.587Z,1
2023-01-11T09:41:14.583Z,1
2023-01-11T09:42:14.855Z,1
2023-01-11T09:43:14.459Z,1
2023-01-11T09:44:14.721Z,1
2023-01-11T09:45:14.422Z,1
2023-01-11T09:47:15.030Z,1
2023-01-11T09:48:14.076Z,1
2023-01-11T09:49:14.415Z,1
2023-01-11T09:50:14.044Z,1
2023-01-11T09:51:14.616Z,1
2023-01-11T09:52:14.427Z,1
2023-01-11T09:53:14.121Z,1
2023-01-11T09:54:14.943Z,1
2023-01-11T09:55:14.836Z,1
2023-01-11T09:56:14.005Z,1
2023-01-11T09:57:14.688Z,1
2023-01-11T09:58:14.703Z,1
2023-01-11T09:59:14.126Z,1
2023-01-11T10:00:13.599Z,1
2023-01-11T10:01:14.701Z,1
2023-01-11T10:02:17.345Z,3
2023-01-11T10:03:14.578Z,3
2023-01-11T10:04:14.206Z,3
2023-01-11T10:05:15.286Z,3
2023-01-11T10:06:14.289Z,3
2023-01-11T10:07:14.639Z,3
2023-01-11T10:18:21.420Z,3
2023-01-11T10:21:14.192Z,1
2023-01-11T10:22:14.744Z,1
2023-01-11T10:23:14.520Z,1
2023-01-11T10:24:13.877Z,1
2023-01-11T10:26:13.829Z,1
2023-01-11T10:28:14.642Z,1
2023-01-11T10:29:14.339Z,1
2023-01-11T10:32:14.314Z,3
2023-01-11T10:33:14.632Z,3
2023-01-11T10:34:13.944Z,3
2023-01-11T10:35:14.413Z,3
2023-01-11T10:36:14.756Z,3
2023-01-11T10:37:13.618Z,3
2023-01-11T10:39:14.318Z,3
2023-01-11T10:40:14.719Z,3
2023-01-11T10:42:14.235Z,3
2023-01-11T10:43:14.578Z,3
2023-01-11T10:44:14.289Z,3
2023-01-11T10:47:14.026Z,3
2023-01-11T10:48:14.144Z,3
2023-01-11T10:49:14.526Z,3
2023-01-11T10:50:17.076Z,3
2023-01-11T10:51:14.334Z,3
2023-01-11T10:53:14.661Z,3
2023-01-11T10:55:14.559Z,3
2023-01-11T10:56:14.104Z,3
2023-01-11T10:59:14.190Z,3
2023-01-11T11:00:14.284Z,3
2023-01-11T11:03:14.098Z,1
2023-01-11T11:05:13.967Z,1
2023-01-11T11:06:14.547Z,1
2023-01-11T11:08:14.908Z,1
2023-01-11T11:09:14.396Z,1
2023-01-11T11:11:14.275Z,1
2023-01-11T11:12:14.473Z,1
2023-01-11T11:14:13.612Z,1
2023-01-11T11:16:13.776Z,1
2023-01-11T11:18:14.229Z,1
2023-01-11T11:19:14.330Z,1
2023-01-11T11:20:14.511Z,1
2023-01-11T11:21:14.312Z,1
2023-01-11T11:24:14.228Z,1
2023-01-11T11:25:14.709Z,1
2023-01-11T11:27:14.476Z,1
2023-01-11T11:28:14.289Z,1
2023-01-11T11:29:14.645Z,1
2023-01-11T11:31:14.272Z,1
2023-01-11T11:32:14.468Z,6
2023-01-11T11:33:13.189Z,6
2023-01-11T11:34:14.301Z,6
2023-01-11T11:35:14.298Z,6
2023-01-11T11:36:14.569Z,6
2023-01-11T11:37:14.402Z,6
2023-01-11T11:38:14.136Z,6
2023-01-11T11:39:14.416Z,6
2023-01-11T11:40:14.653Z,6
2023-01-11T11:41:14.063Z,6
2023-01-11T11:42:14.378Z,6
2023-01-11T11:43:14.761Z,6
2023-01-11T11:45:14.557Z,6
2023-01-11T11:46:18.610Z,6
2023-01-11T11:47:14.702Z,3
2023-01-11T11:49:14.281Z,3
2023-01-11T11:50:14.561Z,3
2023-01-11T11:53:14.224Z,3
2023-01-11T11:54:14.555Z,3
2023-01-11T11:55:14.386Z,3
2023-01-11T11:56:14.763Z,3
2023-01-11T11:57:14.817Z,3
2023-01-11T11:58:14.972Z,3
2023-01-11T11:59:14.206Z,3
2023-01-11T12:00:13.147Z,3
2023-01-11T12:02:14.789Z,0
2023-01-11T12:04:14.399Z,0
2023-01-11T12:07:14.751Z,0
2023-01-11T12:08:14.288Z,0
2023-01-11T12:09:14.096Z,0
2023-01-11T12:10:14.156Z,0
2023-01-11T12:11:14.213Z,0
2023-01-11T12:12:14.703Z,0
2023-01-11T12:13:14.126Z,0
2023-01-11T12:14:14.528Z,0
2023-01-11T12:15:14.168Z,0
2023-01-11T12:16:14.715Z,0
2023-01-11T12:17:14.242Z,3
2023-01-11T12:19:14.200Z,3
2023-01-11T12:20:14.424Z,3
2023-01-11T12:21:14.751Z,3
2023-01-11T12:22:14.666Z,3
2023-01-11T12:23:14.283Z,3
2023-01-11T12:24:14.465Z,3
2023-01-11T12:25:14.662Z,3
2023-01-11T12:26:14.229Z,3
2023-01-11T12:28:13.091Z,3
2023-01-11T12:29:13.988Z,3
2023-01-11T12:30:14.796Z,3
2023-01-11T12:32:14.341Z,1
2023-01-11T12:33:14.061Z,1
2023-01-11T12:34:14.381Z,1
2023-01-11T12:35:14.721Z,1
2023-01-11T12:37:14.823Z,1
2023-01-11T12:39:14.233Z,1
2023-01-11T12:40:14.175Z,1
2023-01-11T12:43:14.467Z,1
2023-01-11T12:44:14.500Z,1
2023-01-11T12:45:14.077Z,1
2023-01-11T12:46:14.787Z,1
2023-01-11T12:47:13.439Z,3
2023-01-11T12:48:13.699Z,3
2023-01-11T12:49:14.731Z,3
2023-01-11T12:51:14.350Z,3
2023-01-11T12:53:14.567Z,3
2023-01-11T12:55:14.331Z,3
2023-01-11T12:56:14.147Z,3
2023-01-11T12:57:14.797Z,3
2023-01-11T12:59:14.039Z,3
2023-01-11T13:00:14.152Z,3
2023-01-11T13:03:14.686Z,0
2023-01-11T13:05:14.231Z,0
2023-01-11T13:06:14.780Z,0
2023-01-11T13:07:14.717Z,0
2023-01-11T13:08:13.971Z,0
2023-01-11T13:09:16.636Z,0
2023-01-11T13:10:14.526Z,0
2023-01-11T13:11:14.092Z,0
2023-01-11T13:12:14.521Z,0
2023-01-11T13:13:14.493Z,0
2023-01-11T13:15:14.405Z,0
2023-01-11T13:16:14.095Z,0
2023-01-11T13:19:14.255Z,3
2023-01-11T13:20:14.638Z,3
2023-01-11T13:21:17.245Z,3
2023-01-11T13:22:14.405Z,3
2023-01-11T13:23:14.205Z,3
2023-01-11T13:24:14.468Z,3
2023-01-11T13:25:14.551Z,3
2023-01-11T13:26:14.574Z,3
2023-01-11T13:28:29.969Z,3
2023-01-11T13:29:14.135Z,3
2023-01-11T13:30:14.421Z,3
2023-01-11T13:32:14.911Z,1
2023-01-11T13:33:14.588Z,1
2023-01-11T13:34:14.755Z,1
2023-01-11T13:35:13.055Z,1
2023-01-11T13:36:31.564Z,1
2023-01-11T13:37:13.889Z,1
2023-01-11T13:38:14.241Z,1
2023-01-11T13:39:14.521Z,1
2023-01-11T13:40:13.386Z,1
2023-01-11T13:41:14.755Z,1
2023-01-11T13:42:14.295Z,1
2023-01-11T13:43:14.556Z,1
2023-01-11T13:44:14.687Z,1
2023-01-11T13:45:14.196Z,1
2023-01-11T13:48:14.824Z,0
2023-01-11T13:49:14.464Z,0
2023-01-11T13:50:14.072Z,0
2023-01-11T13:51:14.062Z,0
2023-01-11T13:52:14.496Z,0
2023-01-11T13:54:14.340Z,0
2023-01-11T13:55:31.264Z,0
2023-01-11T13:56:14.521Z,0
2023-01-11T13:57:14.609Z,0
2023-01-11T13:58:13.250Z,0
2023-01-11T14:00:14.382Z,0
2023-01-11T14:01:14.812Z,0
2023-01-11T14:03:14.413Z,1
2023-01-11T14:04:14.616Z,1
2023-01-11T14:05:14.463Z,1
2023-01-11T14:06:14.772Z,1
2023-01-11T14:07:13.943Z,1
2023-01-11T14:08:14.199Z,1
2023-01-11T14:09:14.540Z,1
2023-01-11T14:10:14.495Z,1
2023-01-11T14:11:14.765Z,1
2023-01-11T14:12:14.007Z,1
2023-01-11T14:14:14.612Z,1
2023-01-11T14:15:14.778Z,1
2023-01-11T14:16:14.545Z,1
2023-01-11T14:17:14.591Z,0
2023-01-11T14:18:14.224Z,0
2023-01-11T14:19:14.233Z,0
2023-01-11T14:20:16.333Z,0
2023-01-11T14:21:14.884Z,0
2023-01-11T14:22:14.113Z,0
2023-01-11T14:24:14.382Z,0
2023-01-11T14:25:14.758Z,0
2023-01-11T14:26:14.218Z,0
2023-01-11T14:27:15.333Z,0
2023-01-11T14:28:14.328Z,0
2023-01-11T14:29:14.377Z,0
2023-01-11T14:30:14.354Z,0
2023-01-11T14:32:14.741Z,1
2023-01-11T14:33:14.104Z,1
2023-01-11T14:34:14.299Z,1
2023-01-11T14:35:14.624Z,1
2023-01-11T14:36:14.401Z,1
2023-01-11T14:37:14.739Z,1
2023-01-11T14:38:14.415Z,1
2023-01-11T14:39:14.693Z,1
2023-01-11T14:40:14.401Z,1
2023-01-11T14:41:14.623Z,1
2023-01-11T14:42:35.204Z,1
2023-01-11T14:43:14.783Z,1
2023-01-11T14:45:14.725Z,1
2023-01-11T14:46:14.415Z,1
2023-01-11T14:47:14.103Z,1
2023-01-11T14:48:14.311Z,1
2023-01-11T14:50:14.384Z,1
2023-01-11T14:53:14.160Z,1
2023-01-11T14:54:14.371Z,1
2023-01-11T14:56:14.149Z,1
2023-01-11T14:57:14.037Z,1
2023-01-11T14:58:14.828Z,1
2023-01-11T15:00:13.443Z,1
2023-01-11T15:02:14.810Z,4
2023-01-11T15:03:14.830Z,4
2023-01-11T15:05:14.164Z,4
2023-01-11T15:08:14.515Z,4
2023-01-11T15:09:14.780Z,4
2023-01-11T15:10:14.566Z,4
2023-01-11T15:11:14.277Z,4
2023-01-11T15:12:14.247Z,4
2023-01-11T15:13:14.059Z,4
2023-01-11T15:14:14.456Z,4
2023-01-11T15:16:14.624Z,4
2023-01-11T15:17:13.632Z,3
2023-01-11T15:18:14.323Z,3
2023-01-11T15:19:14.689Z,3
2023-01-11T15:20:14.467Z,3
2023-01-11T15:21:14.295Z,3
2023-01-11T15:22:14.657Z,3
2023-01-11T15:23:14.149Z,3
2023-01-11T15:24:14.379Z,3
2023-01-11T15:25:13.495Z,3
2023-01-11T15:26:14.762Z,3
2023-01-11T15:28:13.936Z,3
2023-01-11T15:29:14.407Z,3
2023-01-11T15:30:14.343Z,3
2023-01-11T15:31:14.521Z,3
2023-01-11T15:32:14.168Z,1
2023-01-11T15:33:14.150Z,1
2023-01-11T15:34:14.291Z,1
2023-01-11T15:35:14.445Z,1
2023-01-11T15:36:14.795Z,1
2023-01-11T15:37:14.068Z,1
2023-01-11T15:38:14.618Z,1
2023-01-11T15:40:14.176Z,1
2023-01-11T15:41:14.202Z,1
2023-01-11T15:42:14.355Z,1
2023-01-11T15:45:14.273Z,1
2023-01-11T15:49:14.179Z,6
2023-01-11T15:52:14.001Z,6
2023-01-11T15:53:14.352Z,6
2023-01-11T15:54:14.684Z,6
2023-01-11T15:56:14.271Z,6
2023-01-11T15:57:14.333Z,6
2023-01-11T15:59:14.207Z,6
2023-01-11T16:02:14.521Z,9
2023-01-11T16:03:14.191Z,9
2023-01-11T16:04:14.750Z,9
2023-01-11T16:05:14.563Z,9
2023-01-11T16:06:14.370Z,9
2023-01-11T16:07:13.888Z,9
2023-01-11T16:08:14.226Z,9
2023-01-11T16:09:14.296Z,9
2023-01-11T16:11:14.285Z,9
2023-01-11T16:13:14.261Z,9
2023-01-11T16:14:14.485Z,9
2023-01-11T16:16:14.797Z,9
2023-01-11T16:17:14.689Z,5
2023-01-11T16:18:14.241Z,5
2023-01-11T16:19:14.261Z,5
2023-01-11T16:20:14.555Z,5
2023-01-11T16:21:14.552Z,5
2023-01-11T16:22:14.091Z,5
2023-01-11T16:24:14.391Z,5
2023-01-11T16:25:14.251Z,5
2023-01-11T16:26:14.827Z,5
2023-01-11T16:28:14.607Z,5
2023-01-11T16:29:14.300Z,5
2023-01-11T16:30:14.405Z,5
2023-01-11T16:31:14.688Z,5
2023-01-11T16:32:14.210Z,14
2023-01-11T16:33:14.487Z,14
2023-01-11T16:34:14.921Z,14
2023-01-11T16:35:14.301Z,14
2023-01-11T16:36:14.496Z,14
2023-01-11T16:37:14.721Z,14
2023-01-11T16:38:14.083Z,14
2023-01-11T16:39:14.498Z,14
2023-01-11T16:40:14.718Z,14
2023-01-11T16:41:14.258Z,14
2023-01-11T16:42:14.604Z,14
2023-01-11T16:43:13.972Z,14
2023-01-11T16:44:14.312Z,14
2023-01-11T16:46:14.614Z,14
2023-01-11T16:47:14.634Z,9
2023-01-11T16:48:14.806Z,9
2023-01-11T16:49:14.742Z,9
2023-01-11T16:50:14.246Z,9
2023-01-11T16:51:14.400Z,9
2023-01-11T16:52:14.806Z,9
2023-01-11T16:53:14.112Z,9
2023-01-11T16:56:14.498Z,9
2023-01-11T16:57:16.431Z,9
2023-01-11T16:58:14.112Z,9